sensor_id;sensor_type;location;lat;lon;timestamp;P1;durP1;ratioP1;P2;durP2;ratioP2
42140;SDS011;27809;51.864;5.646;2022-11-04T00:01:51;11.15;;;5.47;;
42140;SDS011;27809;51.864;5.646;2022-11-04T00:04:19;10.27;;;5.95;;
42140;SDS011;27809;51.864;5.646;2022-11-04T00:06:46;14.25;;;7.00;;
42140;SDS011;27809;51.864;5.646;2022-11-04T00:09:16;12.27;;;7.75;;
42140;SDS011;27809;51.864;5.646;2022-11-04T00:11:50;13.40;;;7.15;;
42140;SDS011;27809;51.864;5.646;2022-11-04T00:14:35;11.52;;;7.72;;
42140;SDS011;27809;51.864;5.646;2022-11-04T00:17:01;14.15;;;8.30;;
42140;SDS011;27809;51.864;5.646;2022-11-04T00:19:46;16.10;;;9.50;;
42140;SDS011;27809;51.864;5.646;2022-11-04T00:22:35;24.42;;;8.52;;
42140;SDS011;27809;51.864;5.646;2022-11-04T00:25:20;9.88;;;6.30;;
42140;SDS011;27809;51.864;5.646;2022-11-04T00:28:14;6.43;;;4.65;;
42140;SDS011;27809;51.864;5.646;2022-11-04T00:31:03;7.78;;;4.68;;
42140;SDS011;27809;51.864;5.646;2022-11-04T00:33:49;6.50;;;3.03;;
42140;SDS011;27809;51.864;5.646;2022-11-04T00:36:16;4.05;;;2.58;;
42140;SDS011;27809;51.864;5.646;2022-11-04T00:38:42;4.40;;;1.70;;
42140;SDS011;27809;51.864;5.646;2022-11-04T00:41:07;2.35;;;1.30;;
42140;SDS011;27809;51.864;5.646;2022-11-04T00:43:50;2.57;;;1.07;;
42140;SDS011;27809;51.864;5.646;2022-11-04T00:46:17;3.58;;;0.60;;
42140;SDS011;27809;51.864;5.646;2022-11-04T00:48:42;1.80;;;0.65;;
42140;SDS011;27809;51.864;5.646;2022-11-04T00:51:08;1.75;;;0.57;;
42140;SDS011;27809;51.864;5.646;2022-11-04T00:53:33;1.80;;;0.60;;
42140;SDS011;27809;51.864;5.646;2022-11-04T00:55:59;1.40;;;0.50;;
42140;SDS011;27809;51.864;5.646;2022-11-04T00:58:24;0.90;;;0.40;;
42140;SDS011;27809;51.864;5.646;2022-11-04T01:00:52;2.25;;;0.20;;
42140;SDS011;27809;51.864;5.646;2022-11-04T01:03:17;0.93;;;0.30;;
42140;SDS011;27809;51.864;5.646;2022-11-04T01:05:43;0.98;;;0.60;;
42140;SDS011;27809;51.864;5.646;2022-11-04T01:08:08;2.17;;;0.65;;
42140;SDS011;27809;51.864;5.646;2022-11-04T01:10:34;4.28;;;1.13;;
42140;SDS011;27809;51.864;5.646;2022-11-04T01:13:08;1.67;;;0.70;;
42140;SDS011;27809;51.864;5.646;2022-11-04T01:15:35;1.20;;;0.50;;
42140;SDS011;27809;51.864;5.646;2022-11-04T01:18:01;2.00;;;0.73;;
42140;SDS011;27809;51.864;5.646;2022-11-04T01:20:26;1.80;;;0.90;;
42140;SDS011;27809;51.864;5.646;2022-11-04T01:22:52;1.75;;;0.85;;
42140;SDS011;27809;51.864;5.646;2022-11-04T01:25:17;2.53;;;1.45;;
42140;SDS011;27809;51.864;5.646;2022-11-04T01:27:43;1.55;;;0.70;;
42140;SDS011;27809;51.864;5.646;2022-11-04T01:30:09;7.75;;;1.73;;
42140;SDS011;27809;51.864;5.646;2022-11-04T01:32:35;4.95;;;1.83;;
42140;SDS011;27809;51.864;5.646;2022-11-04T01:35:00;3.78;;;2.30;;
42140;SDS011;27809;51.864;5.646;2022-11-04T01:37:26;5.45;;;2.78;;
42140;SDS011;27809;51.864;5.646;2022-11-04T01:39:51;8.27;;;5.70;;
42140;SDS011;27809;51.864;5.646;2022-11-04T01:42:19;8.13;;;5.55;;
42140;SDS011;27809;51.864;5.646;2022-11-04T01:44:53;10.45;;;5.25;;
42140;SDS011;27809;51.864;5.646;2022-11-04T01:47:22;9.30;;;4.90;;
42140;SDS011;27809;51.864;5.646;2022-11-04T01:50:26;13.80;;;6.93;;
42140;SDS011;27809;51.864;5.646;2022-11-04T01:52:52;11.77;;;7.30;;
42140;SDS011;27809;51.864;5.646;2022-11-04T01:55:31;15.77;;;7.43;;
42140;SDS011;27809;51.864;5.646;2022-11-04T01:58:03;13.02;;;8.32;;
42140;SDS011;27809;51.864;5.646;2022-11-04T02:00:33;18.05;;;10.27;;
42140;SDS011;27809;51.864;5.646;2022-11-04T02:03:00;16.33;;;9.25;;
42140;SDS011;27809;51.864;5.646;2022-11-04T02:05:30;16.30;;;9.38;;
42140;SDS011;27809;51.864;5.646;2022-11-04T02:07:56;18.08;;;8.52;;
42140;SDS011;27809;51.864;5.646;2022-11-04T02:10:25;17.92;;;11.45;;
42140;SDS011;27809;51.864;5.646;2022-11-04T02:12:53;26.92;;;12.82;;
42140;SDS011;27809;51.864;5.646;2022-11-04T02:15:29;20.38;;;12.20;;
42140;SDS011;27809;51.864;5.646;2022-11-04T02:18:02;24.80;;;11.90;;
42140;SDS011;27809;51.864;5.646;2022-11-04T02:20:53;18.58;;;11.63;;
42140;SDS011;27809;51.864;5.646;2022-11-04T02:34:54;19.52;;;11.50;;
42140;SDS011;27809;51.864;5.646;2022-11-04T02:42:59;16.88;;;10.80;;
42140;SDS011;27809;51.864;5.646;2022-11-04T02:45:56;20.58;;;11.57;;
42140;SDS011;27809;51.864;5.646;2022-11-04T02:51:02;19.42;;;11.63;;
42140;SDS011;27809;51.864;5.646;2022-11-04T02:53:37;19.35;;;11.73;;
42140;SDS011;27809;51.864;5.646;2022-11-04T02:56:11;20.65;;;9.80;;
42140;SDS011;27809;51.864;5.646;2022-11-04T02:58:44;14.32;;;9.05;;
42140;SDS011;27809;51.864;5.646;2022-11-04T03:01:20;19.45;;;10.40;;
42140;SDS011;27809;51.864;5.646;2022-11-04T03:03:51;19.98;;;9.68;;
42140;SDS011;27809;51.864;5.646;2022-11-04T03:06:24;21.27;;;8.57;;
42140;SDS011;27809;51.864;5.646;2022-11-04T03:08:51;25.05;;;9.77;;
42140;SDS011;27809;51.864;5.646;2022-11-04T03:11:20;16.58;;;9.77;;
42140;SDS011;27809;51.864;5.646;2022-11-04T03:16:23;16.45;;;9.52;;
42140;SDS011;27809;51.864;5.646;2022-11-04T03:19:02;19.75;;;8.85;;
42140;SDS011;27809;51.864;5.646;2022-11-04T03:21:54;20.90;;;8.60;;
42140;SDS011;27809;51.864;5.646;2022-11-04T03:24:24;13.77;;;7.90;;
42140;SDS011;27809;51.864;5.646;2022-11-04T03:26:53;13.77;;;7.90;;
42140;SDS011;27809;51.864;5.646;2022-11-04T03:29:25;22.50;;;7.72;;
42140;SDS011;27809;51.864;5.646;2022-11-04T03:34:59;15.48;;;6.47;;
42140;SDS011;27809;51.864;5.646;2022-11-04T03:37:24;14.88;;;6.63;;
42140;SDS011;27809;51.864;5.646;2022-11-04T03:39:50;14.07;;;4.90;;
42140;SDS011;27809;51.864;5.646;2022-11-04T03:42:16;11.00;;;5.25;;
42140;SDS011;27809;51.864;5.646;2022-11-04T03:44:53;8.15;;;3.88;;
42140;SDS011;27809;51.864;5.646;2022-11-04T03:47:21;10.90;;;5.68;;
42140;SDS011;27809;51.864;5.646;2022-11-04T03:49:48;6.32;;;3.45;;
42140;SDS011;27809;51.864;5.646;2022-11-04T03:52:17;5.65;;;2.88;;
42140;SDS011;27809;51.864;5.646;2022-11-04T03:54:43;13.40;;;5.07;;
42140;SDS011;27809;51.864;5.646;2022-11-04T03:57:18;9.68;;;4.28;;
42140;SDS011;27809;51.864;5.646;2022-11-04T04:04:59;11.13;;;3.45;;
42140;SDS011;27809;51.864;5.646;2022-11-04T04:07:32;8.32;;;3.63;;
42140;SDS011;27809;51.864;5.646;2022-11-04T04:10:04;5.65;;;3.60;;
42140;SDS011;27809;51.864;5.646;2022-11-04T04:13:00;8.82;;;3.95;;
42140;SDS011;27809;51.864;5.646;2022-11-04T04:15:32;9.57;;;2.58;;
42140;SDS011;27809;51.864;5.646;2022-11-04T04:18:28;6.47;;;2.65;;
42140;SDS011;27809;51.864;5.646;2022-11-04T04:20:59;4.25;;;1.83;;
42140;SDS011;27809;51.864;5.646;2022-11-04T04:23:29;4.50;;;1.73;;
42140;SDS011;27809;51.864;5.646;2022-11-04T04:26:17;5.70;;;1.98;;
42140;SDS011;27809;51.864;5.646;2022-11-04T04:29:03;16.73;;;1.90;;
42140;SDS011;27809;51.864;5.646;2022-11-04T04:31:30;6.30;;;2.40;;
42140;SDS011;27809;51.864;5.646;2022-11-04T04:34:21;5.03;;;1.75;;
42140;SDS011;27809;51.864;5.646;2022-11-04T04:36:50;7.07;;;2.17;;
42140;SDS011;27809;51.864;5.646;2022-11-04T04:39:44;8.60;;;2.25;;
42140;SDS011;27809;51.864;5.646;2022-11-04T04:42:32;5.57;;;1.35;;
42140;SDS011;27809;51.864;5.646;2022-11-04T04:45:19;5.05;;;1.50;;
42140;SDS011;27809;51.864;5.646;2022-11-04T04:47:49;7.13;;;2.03;;
42140;SDS011;27809;51.864;5.646;2022-11-04T04:50:16;8.48;;;3.47;;
42140;SDS011;27809;51.864;5.646;2022-11-04T04:52:45;15.32;;;2.90;;
42140;SDS011;27809;51.864;5.646;2022-11-04T04:55:13;12.93;;;1.90;;
42140;SDS011;27809;51.864;5.646;2022-11-04T04:57:39;2.28;;;1.20;;
42140;SDS011;27809;51.864;5.646;2022-11-04T05:00:05;11.10;;;1.58;;
42140;SDS011;27809;51.864;5.646;2022-11-04T05:02:32;10.30;;;1.30;;
42140;SDS011;27809;51.864;5.646;2022-11-04T05:04:58;19.30;;;1.95;;
42140;SDS011;27809;51.864;5.646;2022-11-04T05:07:24;3.95;;;1.75;;
42140;SDS011;27809;51.864;5.646;2022-11-04T05:09:49;9.15;;;2.15;;
42140;SDS011;27809;51.864;5.646;2022-11-04T05:12:15;3.03;;;1.27;;
42140;SDS011;27809;51.864;5.646;2022-11-04T05:14:41;3.40;;;1.40;;
42140;SDS011;27809;51.864;5.646;2022-11-04T05:17:06;6.93;;;2.35;;
42140;SDS011;27809;51.864;5.646;2022-11-04T05:19:32;6.28;;;1.90;;
42140;SDS011;27809;51.864;5.646;2022-11-04T05:21:57;3.63;;;1.83;;
42140;SDS011;27809;51.864;5.646;2022-11-04T05:24:23;12.52;;;2.45;;
42140;SDS011;27809;51.864;5.646;2022-11-04T05:26:49;4.75;;;1.80;;
42140;SDS011;27809;51.864;5.646;2022-11-04T05:29:14;4.72;;;1.60;;
42140;SDS011;27809;51.864;5.646;2022-11-04T05:31:40;4.55;;;1.98;;
42140;SDS011;27809;51.864;5.646;2022-11-04T05:34:05;3.28;;;1.55;;
42140;SDS011;27809;51.864;5.646;2022-11-04T05:36:31;2.42;;;1.23;;
42140;SDS011;27809;51.864;5.646;2022-11-04T05:38:59;14.20;;;1.65;;
42140;SDS011;27809;51.864;5.646;2022-11-04T05:41:24;3.22;;;1.30;;
42140;SDS011;27809;51.864;5.646;2022-11-04T05:43:54;5.53;;;2.40;;
42140;SDS011;27809;51.864;5.646;2022-11-04T05:46:22;7.65;;;2.65;;
42140;SDS011;27809;51.864;5.646;2022-11-04T05:48:48;5.88;;;2.35;;
42140;SDS011;27809;51.864;5.646;2022-11-04T05:51:15;4.45;;;1.23;;
42140;SDS011;27809;51.864;5.646;2022-11-04T05:53:42;5.85;;;1.63;;
42140;SDS011;27809;51.864;5.646;2022-11-04T05:56:08;6.95;;;2.05;;
42140;SDS011;27809;51.864;5.646;2022-11-04T05:58:33;8.57;;;1.52;;
42140;SDS011;27809;51.864;5.646;2022-11-04T06:03:46;4.15;;;1.52;;
42140;SDS011;27809;51.864;5.646;2022-11-04T06:06:12;2.20;;;0.82;;
42140;SDS011;27809;51.864;5.646;2022-11-04T06:08:37;2.80;;;1.33;;
42140;SDS011;27809;51.864;5.646;2022-11-04T06:11:03;4.75;;;1.15;;
42140;SDS011;27809;51.864;5.646;2022-11-04T06:13:29;3.22;;;1.30;;
42140;SDS011;27809;51.864;5.646;2022-11-04T06:15:55;4.05;;;1.10;;
42140;SDS011;27809;51.864;5.646;2022-11-04T06:18:20;8.57;;;1.67;;
42140;SDS011;27809;51.864;5.646;2022-11-04T06:20:46;6.07;;;2.28;;
42140;SDS011;27809;51.864;5.646;2022-11-04T06:23:11;6.82;;;1.73;;
42140;SDS011;27809;51.864;5.646;2022-11-04T06:25:37;4.00;;;1.33;;
42140;SDS011;27809;51.864;5.646;2022-11-04T06:28:02;3.03;;;1.08;;
42140;SDS011;27809;51.864;5.646;2022-11-04T06:30:28;9.57;;;2.53;;
42140;SDS011;27809;51.864;5.646;2022-11-04T06:32:53;2.97;;;0.73;;
42140;SDS011;27809;51.864;5.646;2022-11-04T06:35:19;4.30;;;0.95;;
42140;SDS011;27809;51.864;5.646;2022-11-04T06:37:44;8.80;;;2.55;;
42140;SDS011;27809;51.864;5.646;2022-11-04T06:40:10;3.40;;;1.25;;
42140;SDS011;27809;51.864;5.646;2022-11-04T06:42:36;5.38;;;1.27;;
42140;SDS011;27809;51.864;5.646;2022-11-04T06:45:01;3.97;;;1.55;;
42140;SDS011;27809;51.864;5.646;2022-11-04T06:47:27;7.35;;;1.80;;
42140;SDS011;27809;51.864;5.646;2022-11-04T06:49:53;6.38;;;1.20;;
42140;SDS011;27809;51.864;5.646;2022-11-04T06:52:18;13.27;;;2.05;;
42140;SDS011;27809;51.864;5.646;2022-11-04T06:54:43;5.68;;;1.58;;
42140;SDS011;27809;51.864;5.646;2022-11-04T06:57:11;5.57;;;1.27;;
42140;SDS011;27809;51.864;5.646;2022-11-04T06:59:36;3.58;;;1.38;;
42140;SDS011;27809;51.864;5.646;2022-11-04T07:02:02;5.05;;;1.38;;
42140;SDS011;27809;51.864;5.646;2022-11-04T07:04:27;2.33;;;1.10;;
42140;SDS011;27809;51.864;5.646;2022-11-04T07:06:53;6.65;;;1.90;;
42140;SDS011;27809;51.864;5.646;2022-11-04T07:09:18;4.78;;;1.90;;
42140;SDS011;27809;51.864;5.646;2022-11-04T07:11:44;5.75;;;1.77;;
42140;SDS011;27809;51.864;5.646;2022-11-04T07:14:10;9.02;;;2.63;;
42140;SDS011;27809;51.864;5.646;2022-11-04T07:16:35;5.03;;;2.10;;
42140;SDS011;27809;51.864;5.646;2022-11-04T07:19:02;7.60;;;1.85;;
42140;SDS011;27809;51.864;5.646;2022-11-04T07:21:27;11.02;;;2.95;;
42140;SDS011;27809;51.864;5.646;2022-11-04T07:23:53;3.20;;;1.35;;
42140;SDS011;27809;51.864;5.646;2022-11-04T07:26:19;3.83;;;1.65;;
42140;SDS011;27809;51.864;5.646;2022-11-04T07:28:44;4.63;;;1.65;;
42140;SDS011;27809;51.864;5.646;2022-11-04T07:31:11;19.63;;;3.10;;
42140;SDS011;27809;51.864;5.646;2022-11-04T07:33:37;6.65;;;1.55;;
42140;SDS011;27809;51.864;5.646;2022-11-04T07:36:04;10.43;;;2.08;;
42140;SDS011;27809;51.864;5.646;2022-11-04T07:38:30;5.18;;;1.50;;
42140;SDS011;27809;51.864;5.646;2022-11-04T07:40:56;4.75;;;1.33;;
42140;SDS011;27809;51.864;5.646;2022-11-04T07:43:23;5.15;;;0.90;;
42140;SDS011;27809;51.864;5.646;2022-11-04T07:48:44;3.95;;;1.08;;
42140;SDS011;27809;51.864;5.646;2022-11-04T07:51:11;14.98;;;3.00;;
42140;SDS011;27809;51.864;5.646;2022-11-04T07:53:40;5.13;;;2.15;;
42140;SDS011;27809;51.864;5.646;2022-11-04T07:56:07;5.82;;;1.50;;
42140;SDS011;27809;51.864;5.646;2022-11-04T07:58:38;4.00;;;1.58;;
42140;SDS011;27809;51.864;5.646;2022-11-04T08:01:05;9.07;;;2.53;;
42140;SDS011;27809;51.864;5.646;2022-11-04T08:03:33;10.27;;;2.67;;
42140;SDS011;27809;51.864;5.646;2022-11-04T08:05:59;8.13;;;2.65;;
42140;SDS011;27809;51.864;5.646;2022-11-04T08:08:26;3.92;;;1.55;;
42140;SDS011;27809;51.864;5.646;2022-11-04T08:10:53;9.23;;;3.10;;
42140;SDS011;27809;51.864;5.646;2022-11-04T08:13:20;4.03;;;1.90;;
42140;SDS011;27809;51.864;5.646;2022-11-04T08:15:46;8.77;;;3.28;;
42140;SDS011;27809;51.864;5.646;2022-11-04T08:18:12;5.15;;;2.20;;
42140;SDS011;27809;51.864;5.646;2022-11-04T08:20:37;8.10;;;3.60;;
42140;SDS011;27809;51.864;5.646;2022-11-04T08:23:03;7.95;;;3.47;;
42140;SDS011;27809;51.864;5.646;2022-11-04T08:25:29;17.02;;;3.78;;
42140;SDS011;27809;51.864;5.646;2022-11-04T08:27:54;20.15;;;4.15;;
42140;SDS011;27809;51.864;5.646;2022-11-04T08:30:20;6.80;;;3.30;;
42140;SDS011;27809;51.864;5.646;2022-11-04T08:32:45;9.80;;;2.97;;
42140;SDS011;27809;51.864;5.646;2022-11-04T08:35:11;7.53;;;2.65;;
42140;SDS011;27809;51.864;5.646;2022-11-04T08:37:36;8.63;;;3.25;;
42140;SDS011;27809;51.864;5.646;2022-11-04T08:40:02;8.02;;;2.03;;
42140;SDS011;27809;51.864;5.646;2022-11-04T08:42:30;7.65;;;2.92;;
42140;SDS011;27809;51.864;5.646;2022-11-04T08:44:55;10.63;;;4.10;;
42140;SDS011;27809;51.864;5.646;2022-11-04T08:47:21;9.70;;;3.55;;
42140;SDS011;27809;51.864;5.646;2022-11-04T08:49:48;6.80;;;3.78;;
42140;SDS011;27809;51.864;5.646;2022-11-04T08:52:13;32.35;;;4.85;;
42140;SDS011;27809;51.864;5.646;2022-11-04T08:54:39;16.05;;;3.50;;
42140;SDS011;27809;51.864;5.646;2022-11-04T08:57:04;14.43;;;4.05;;
42140;SDS011;27809;51.864;5.646;2022-11-04T08:59:30;14.40;;;3.90;;
42140;SDS011;27809;51.864;5.646;2022-11-04T09:01:56;8.00;;;3.83;;
42140;SDS011;27809;51.864;5.646;2022-11-04T09:04:21;8.68;;;3.70;;
42140;SDS011;27809;51.864;5.646;2022-11-04T09:06:47;11.43;;;3.92;;
42140;SDS011;27809;51.864;5.646;2022-11-04T09:09:15;9.35;;;3.30;;
42140;SDS011;27809;51.864;5.646;2022-11-04T09:11:43;12.13;;;3.65;;
42140;SDS011;27809;51.864;5.646;2022-11-04T09:14:10;12.93;;;3.55;;
42140;SDS011;27809;51.864;5.646;2022-11-04T09:16:36;7.45;;;3.72;;
42140;SDS011;27809;51.864;5.646;2022-11-04T09:19:02;18.70;;;3.67;;
42140;SDS011;27809;51.864;5.646;2022-11-04T09:21:28;10.77;;;2.97;;
42140;SDS011;27809;51.864;5.646;2022-11-04T09:23:54;15.70;;;2.58;;
42140;SDS011;27809;51.864;5.646;2022-11-04T09:26:20;4.90;;;2.30;;
42140;SDS011;27809;51.864;5.646;2022-11-04T09:28:46;7.68;;;4.22;;
42140;SDS011;27809;51.864;5.646;2022-11-04T09:31:14;9.65;;;3.47;;
42140;SDS011;27809;51.864;5.646;2022-11-04T09:33:41;11.52;;;3.42;;
42140;SDS011;27809;51.864;5.646;2022-11-04T09:36:07;9.63;;;3.50;;
42140;SDS011;27809;51.864;5.646;2022-11-04T09:38:34;8.65;;;2.92;;
42140;SDS011;27809;51.864;5.646;2022-11-04T09:41:00;18.10;;;4.65;;
42140;SDS011;27809;51.864;5.646;2022-11-04T09:43:49;15.93;;;5.68;;
42140;SDS011;27809;51.864;5.646;2022-11-04T09:46:23;9.85;;;3.90;;
42140;SDS011;27809;51.864;5.646;2022-11-04T09:48:50;12.57;;;3.60;;
42140;SDS011;27809;51.864;5.646;2022-11-04T09:51:19;9.50;;;3.13;;
42140;SDS011;27809;51.864;5.646;2022-11-04T09:53:49;13.02;;;2.67;;
42140;SDS011;27809;51.864;5.646;2022-11-04T09:56:20;9.68;;;3.70;;
42140;SDS011;27809;51.864;5.646;2022-11-04T09:58:49;14.40;;;3.47;;
42140;SDS011;27809;51.864;5.646;2022-11-04T10:04:07;7.72;;;3.35;;
42140;SDS011;27809;51.864;5.646;2022-11-04T10:06:56;9.85;;;2.92;;
42140;SDS011;27809;51.864;5.646;2022-11-04T10:09:41;9.77;;;3.47;;
42140;SDS011;27809;51.864;5.646;2022-11-04T10:15:06;13.18;;;3.60;;
42140;SDS011;27809;51.864;5.646;2022-11-04T10:20:45;13.63;;;4.43;;
42140;SDS011;27809;51.864;5.646;2022-11-04T10:23:22;13.40;;;3.83;;
42140;SDS011;27809;51.864;5.646;2022-11-04T10:25:59;9.95;;;3.67;;
42140;SDS011;27809;51.864;5.646;2022-11-04T10:28:37;15.40;;;4.57;;
42140;SDS011;27809;51.864;5.646;2022-11-04T10:31:06;13.10;;;5.50;;
42140;SDS011;27809;51.864;5.646;2022-11-04T10:33:38;15.50;;;3.85;;
42140;SDS011;27809;51.864;5.646;2022-11-04T10:36:08;18.40;;;5.32;;
42140;SDS011;27809;51.864;5.646;2022-11-04T10:41:01;9.90;;;5.05;;
42140;SDS011;27809;51.864;5.646;2022-11-04T10:43:36;27.58;;;4.80;;
42140;SDS011;27809;51.864;5.646;2022-11-04T10:48:33;7.72;;;4.47;;
42140;SDS011;27809;51.864;5.646;2022-11-04T10:51:04;14.18;;;5.18;;
42140;SDS011;27809;51.864;5.646;2022-11-04T10:53:31;10.05;;;5.63;;
42140;SDS011;27809;51.864;5.646;2022-11-04T10:56:16;17.67;;;5.57;;
42140;SDS011;27809;51.864;5.646;2022-11-04T10:58:44;22.80;;;6.55;;
42140;SDS011;27809;51.864;5.646;2022-11-04T11:01:25;17.30;;;4.85;;
42140;SDS011;27809;51.864;5.646;2022-11-04T11:03:58;11.40;;;4.28;;
42140;SDS011;27809;51.864;5.646;2022-11-04T11:08:50;7.53;;;4.45;;
42140;SDS011;27809;51.864;5.646;2022-11-04T11:11:17;12.65;;;5.70;;
42140;SDS011;27809;51.864;5.646;2022-11-04T11:14:00;7.35;;;4.25;;
42140;SDS011;27809;51.864;5.646;2022-11-04T11:16:26;9.10;;;4.75;;
42140;SDS011;27809;51.864;5.646;2022-11-04T11:21:43;42.53;;;5.20;;
42140;SDS011;27809;51.864;5.646;2022-11-04T11:24:13;10.02;;;5.00;;
42140;SDS011;27809;51.864;5.646;2022-11-04T11:29:12;12.45;;;4.68;;
42140;SDS011;27809;51.864;5.646;2022-11-04T11:31:49;10.70;;;5.15;;
42140;SDS011;27809;51.864;5.646;2022-11-04T11:34:23;15.95;;;5.68;;
42140;SDS011;27809;51.864;5.646;2022-11-04T11:36:54;13.52;;;6.75;;
42140;SDS011;27809;51.864;5.646;2022-11-04T11:39:27;12.50;;;5.95;;
42140;SDS011;27809;51.864;5.646;2022-11-04T11:41:57;16.38;;;7.55;;
42140;SDS011;27809;51.864;5.646;2022-11-04T11:46:59;12.07;;;6.68;;
42140;SDS011;27809;51.864;5.646;2022-11-04T11:49:28;12.57;;;6.68;;
42140;SDS011;27809;51.864;5.646;2022-11-04T11:52:22;21.50;;;7.00;;
42140;SDS011;27809;51.864;5.646;2022-11-04T11:58:05;14.07;;;6.68;;
42140;SDS011;27809;51.864;5.646;2022-11-04T12:01:00;13.10;;;7.15;;
42140;SDS011;27809;51.864;5.646;2022-11-04T12:03:43;12.60;;;7.10;;
42140;SDS011;27809;51.864;5.646;2022-11-04T12:13:19;27.60;;;8.73;;
42140;SDS011;27809;51.864;5.646;2022-11-04T12:15:58;20.52;;;8.57;;
42140;SDS011;27809;51.864;5.646;2022-11-04T12:19:51;20.92;;;8.43;;
42140;SDS011;27809;51.864;5.646;2022-11-04T12:22:03;16.35;;;7.80;;
42140;SDS011;27809;51.864;5.646;2022-11-04T12:24:48;19.77;;;8.52;;
42140;SDS011;27809;51.864;5.646;2022-11-04T12:28:04;15.82;;;7.10;;
42140;SDS011;27809;51.864;5.646;2022-11-04T12:33:49;20.40;;;7.25;;
42140;SDS011;27809;51.864;5.646;2022-11-04T12:36:49;18.02;;;9.63;;
42140;SDS011;27809;51.864;5.646;2022-11-04T12:39:23;20.58;;;9.55;;
42140;SDS011;27809;51.864;5.646;2022-11-04T12:42:00;20.17;;;8.38;;
42140;SDS011;27809;51.864;5.646;2022-11-04T12:44:41;20.10;;;10.13;;
42140;SDS011;27809;51.864;5.646;2022-11-04T13:00:51;24.45;;;10.38;;
42140;SDS011;27809;51.864;5.646;2022-11-04T13:03:28;18.17;;;10.88;;
42140;SDS011;27809;51.864;5.646;2022-11-04T13:06:11;18.98;;;10.90;;
42140;SDS011;27809;51.864;5.646;2022-11-04T13:11:39;23.17;;;10.52;;
42140;SDS011;27809;51.864;5.646;2022-11-04T13:16:53;14.05;;;8.32;;
42140;SDS011;27809;51.864;5.646;2022-11-04T13:19:41;13.65;;;7.25;;
42140;SDS011;27809;51.864;5.646;2022-11-04T13:22:26;16.98;;;8.20;;
42140;SDS011;27809;51.864;5.646;2022-11-04T13:27:44;12.85;;;7.50;;
42140;SDS011;27809;51.864;5.646;2022-11-04T13:30:30;27.13;;;8.00;;
42140;SDS011;27809;51.864;5.646;2022-11-04T13:38:55;19.05;;;6.57;;
42140;SDS011;27809;51.864;5.646;2022-11-04T13:44:13;13.25;;;5.57;;
42140;SDS011;27809;51.864;5.646;2022-11-04T13:46:49;8.23;;;6.18;;
42140;SDS011;27809;51.864;5.646;2022-11-04T13:49:20;9.05;;;4.70;;
42140;SDS011;27809;51.864;5.646;2022-11-04T13:57:13;10.20;;;6.32;;
42140;SDS011;27809;51.864;5.646;2022-11-04T13:59:41;8.90;;;5.45;;
42140;SDS011;27809;51.864;5.646;2022-11-04T14:02:35;11.85;;;5.43;;
42140;SDS011;27809;51.864;5.646;2022-11-04T14:05:43;11.95;;;5.28;;
42140;SDS011;27809;51.864;5.646;2022-11-04T14:18:49;11.20;;;4.90;;
42140;SDS011;27809;51.864;5.646;2022-11-04T14:21:23;5.60;;;3.47;;
42140;SDS011;27809;51.864;5.646;2022-11-04T14:23:55;15.25;;;4.95;;
42140;SDS011;27809;51.864;5.646;2022-11-04T14:29:19;15.20;;;4.47;;
42140;SDS011;27809;51.864;5.646;2022-11-04T14:31:48;11.88;;;3.25;;
42140;SDS011;27809;51.864;5.646;2022-11-04T14:34:29;6.03;;;3.25;;
42140;SDS011;27809;51.864;5.646;2022-11-04T14:36:57;7.32;;;3.25;;
42140;SDS011;27809;51.864;5.646;2022-11-04T14:39:29;7.70;;;3.20;;
42140;SDS011;27809;51.864;5.646;2022-11-04T14:42:05;9.88;;;3.08;;
42140;SDS011;27809;51.864;5.646;2022-11-04T14:44:40;5.68;;;3.42;;
42140;SDS011;27809;51.864;5.646;2022-11-04T14:52:43;8.70;;;3.78;;
42140;SDS011;27809;51.864;5.646;2022-11-04T14:55:14;7.30;;;4.25;;
42140;SDS011;27809;51.864;5.646;2022-11-04T14:57:41;4.50;;;1.60;;
42140;SDS011;27809;51.864;5.646;2022-11-04T15:05:39;2.95;;;0.20;;
42140;SDS011;27809;51.864;5.646;2022-11-04T15:13:35;2.33;;;0.20;;
42140;SDS011;27809;51.864;5.646;2022-11-04T15:16:09;0.50;;;0.10;;
42140;SDS011;27809;51.864;5.646;2022-11-04T15:18:42;3.20;;;0.65;;
42140;SDS011;27809;51.864;5.646;2022-11-04T15:21:09;0.93;;;0.15;;
42140;SDS011;27809;51.864;5.646;2022-11-04T15:23:44;0.17;;;0.10;;
42140;SDS011;27809;51.864;5.646;2022-11-04T15:26:47;6.18;;;1.55;;
42140;SDS011;27809;51.864;5.646;2022-11-04T15:29:07;0.52;;;0.38;;
42140;SDS011;27809;51.864;5.646;2022-11-04T15:31:35;3.45;;;0.17;;
42140;SDS011;27809;51.864;5.646;2022-11-04T15:34:03;2.05;;;0.30;;
42140;SDS011;27809;51.864;5.646;2022-11-04T15:36:35;3.83;;;0.25;;
42140;SDS011;27809;51.864;5.646;2022-11-04T15:39:10;1.67;;;0.20;;
42140;SDS011;27809;51.864;5.646;2022-11-04T15:41:41;0.52;;;0.15;;
42140;SDS011;27809;51.864;5.646;2022-11-04T15:44:29;11.88;;;0.50;;
42140;SDS011;27809;51.864;5.646;2022-11-04T15:46:57;1.27;;;0.10;;
42140;SDS011;27809;51.864;5.646;2022-11-04T15:49:29;0.20;;;0.10;;
42140;SDS011;27809;51.864;5.646;2022-11-04T15:52:03;3.38;;;0.20;;
42140;SDS011;27809;51.864;5.646;2022-11-04T15:54:32;4.47;;;0.57;;
42140;SDS011;27809;51.864;5.646;2022-11-04T15:57:00;0.93;;;0.25;;
42140;SDS011;27809;51.864;5.646;2022-11-04T15:59:30;3.70;;;0.57;;
42140;SDS011;27809;51.864;5.646;2022-11-04T16:01:58;0.52;;;0.13;;
42140;SDS011;27809;51.864;5.646;2022-11-04T16:04:26;1.15;;;0.52;;
42140;SDS011;27809;51.864;5.646;2022-11-04T16:07:20;2.38;;;0.43;;
42140;SDS011;27809;51.864;5.646;2022-11-04T16:09:51;6.00;;;0.38;;
42140;SDS011;27809;51.864;5.646;2022-11-04T16:12:28;5.00;;;0.93;;
42140;SDS011;27809;51.864;5.646;2022-11-04T16:15:00;1.35;;;0.80;;
42140;SDS011;27809;51.864;5.646;2022-11-04T16:17:26;3.05;;;0.63;;
42140;SDS011;27809;51.864;5.646;2022-11-04T16:19:54;0.98;;;0.40;;
42140;SDS011;27809;51.864;5.646;2022-11-04T16:22:27;3.10;;;0.85;;
42140;SDS011;27809;51.864;5.646;2022-11-04T16:24:55;1.70;;;0.40;;
42140;SDS011;27809;51.864;5.646;2022-11-04T16:27:23;3.03;;;0.60;;
42140;SDS011;27809;51.864;5.646;2022-11-04T16:29:51;3.03;;;0.40;;
42140;SDS011;27809;51.864;5.646;2022-11-04T16:34:56;0.77;;;0.47;;
42140;SDS011;27809;51.864;5.646;2022-11-04T16:37:24;3.15;;;0.57;;
42140;SDS011;27809;51.864;5.646;2022-11-04T16:39:50;6.60;;;0.77;;
42140;SDS011;27809;51.864;5.646;2022-11-04T16:42:16;6.28;;;0.82;;
42140;SDS011;27809;51.864;5.646;2022-11-04T16:44:45;7.82;;;0.73;;
42140;SDS011;27809;51.864;5.646;2022-11-04T16:47:12;5.47;;;1.98;;
42140;SDS011;27809;51.864;5.646;2022-11-04T16:49:38;2.90;;;0.45;;
42140;SDS011;27809;51.864;5.646;2022-11-04T16:52:04;5.32;;;0.82;;
42140;SDS011;27809;51.864;5.646;2022-11-04T16:54:36;5.22;;;1.20;;
42140;SDS011;27809;51.864;5.646;2022-11-04T16:57:02;7.43;;;1.58;;
42140;SDS011;27809;51.864;5.646;2022-11-04T16:59:30;4.55;;;1.35;;
42140;SDS011;27809;51.864;5.646;2022-11-04T17:01:56;3.65;;;1.70;;
42140;SDS011;27809;51.864;5.646;2022-11-04T17:04:21;2.55;;;1.27;;
42140;SDS011;27809;51.864;5.646;2022-11-04T17:06:47;3.53;;;0.75;;
42140;SDS011;27809;51.864;5.646;2022-11-04T17:09:17;2.35;;;0.68;;
42140;SDS011;27809;51.864;5.646;2022-11-04T17:11:45;3.28;;;0.77;;
42140;SDS011;27809;51.864;5.646;2022-11-04T17:14:11;1.77;;;0.90;;
42140;SDS011;27809;51.864;5.646;2022-11-04T17:16:36;2.83;;;1.13;;
42140;SDS011;27809;51.864;5.646;2022-11-04T17:19:02;7.95;;;2.05;;
42140;SDS011;27809;51.864;5.646;2022-11-04T17:21:27;3.22;;;0.80;;
42140;SDS011;27809;51.864;5.646;2022-11-04T17:23:53;0.40;;;0.30;;
42140;SDS011;27809;51.864;5.646;2022-11-04T17:26:20;2.25;;;1.05;;
42140;SDS011;27809;51.864;5.646;2022-11-04T17:28:45;4.57;;;1.42;;